sensor_id;sensor_type;location;lat;lon;timestamp;temperature;humidity
10175;DHT22;18221;38.704;0.152;2023-12-20T00:01:15;11.90;99.90
10175;DHT22;18221;38.704;0.152;2023-12-20T00:03:43;11.90;99.90
10175;DHT22;18221;38.704;0.152;2023-12-20T00:06:11;11.90;99.90
10175;DHT22;18221;38.704;0.152;2023-12-20T00:08:39;11.90;99.90
10175;DHT22;18221;38.704;0.152;2023-12-20T00:11:09;11.90;99.90
10175;DHT22;18221;38.704;0.152;2023-12-20T00:13:37;12.00;99.90
10175;DHT22;18221;38.704;0.152;2023-12-20T00:16:05;12.00;99.90
10175;DHT22;18221;38.704;0.152;2023-12-20T00:18:33;12.00;99.90
10175;DHT22;18221;38.704;0.152;2023-12-20T00:21:01;12.00;99.90
10175;DHT22;18221;38.704;0.152;2023-12-20T00:23:30;12.00;99.90
10175;DHT22;18221;38.704;0.152;2023-12-20T00:25:58;12.00;99.90
10175;DHT22;18221;38.704;0.152;2023-12-20T00:28:28;12.00;99.90
10175;DHT22;18221;38.704;0.152;2023-12-20T00:30:55;11.90;99.90
10175;DHT22;18221;38.704;0.152;2023-12-20T00:33:23;11.90;99.90
10175;DHT22;18221;38.704;0.152;2023-12-20T00:35:51;11.90;99.90
10175;DHT22;18221;38.704;0.152;2023-12-20T00:38:19;12.00;99.90
10175;DHT22;18221;38.704;0.152;2023-12-20T00:40:47;12.00;99.90
10175;DHT22;18221;38.704;0.152;2023-12-20T00:43:16;11.90;99.90
10175;DHT22;18221;38.704;0.152;2023-12-20T00:45:46;11.90;99.90
10175;DHT22;18221;38.704;0.152;2023-12-20T00:48:14;11.90;99.90
10175;DHT22;18221;38.704;0.152;2023-12-20T01:03:46;12.10;99.90
10175;DHT22;18221;38.704;0.152;2023-12-20T01:06:17;12.10;99.90
10175;DHT22;18221;38.704;0.152;2023-12-20T01:08:45;12.30;99.90
10175;DHT22;18221;38.704;0.152;2023-12-20T01:11:13;12.30;99.90
10175;DHT22;18221;38.704;0.152;2023-12-20T01:13:42;12.30;99.90
10175;DHT22;18221;38.704;0.152;2023-12-20T01:16:11;12.30;99.90
10175;DHT22;18221;38.704;0.152;2023-12-20T01:18:39;12.40;99.90
10175;DHT22;18221;38.704;0.152;2023-12-20T01:21:09;12.50;99.90
10175;DHT22;18221;38.704;0.152;2023-12-20T01:23:37;12.50;99.90
10175;DHT22;18221;38.704;0.152;2023-12-20T01:26:05;12.40;99.90
10175;DHT22;18221;38.704;0.152;2023-12-20T01:28:33;12.40;99.90
10175;DHT22;18221;38.704;0.152;2023-12-20T01:31:01;12.40;99.90
10175;DHT22;18221;38.704;0.152;2023-12-20T01:33:32;12.40;99.90
10175;DHT22;18221;38.704;0.152;2023-12-20T01:36:00;12.40;99.90
10175;DHT22;18221;38.704;0.152;2023-12-20T01:38:30;12.50;99.90
10175;DHT22;18221;38.704;0.152;2023-12-20T01:40:58;12.60;99.90
10175;DHT22;18221;38.704;0.152;2023-12-20T01:43:26;12.60;99.90
10175;DHT22;18221;38.704;0.152;2023-12-20T01:45:55;12.70;99.90
10175;DHT22;18221;38.704;0.152;2023-12-20T01:48:24;12.70;99.90
10175;DHT22;18221;38.704;0.152;2023-12-20T01:50:54;12.70;99.90
10175;DHT22;18221;38.704;0.152;2023-12-20T01:53:24;12.80;99.90
10175;DHT22;18221;38.704;0.152;2023-12-20T01:55:58;12.80;99.90
10175;DHT22;18221;38.704;0.152;2023-12-20T01:58:28;12.90;99.90
10175;DHT22;18221;38.704;0.152;2023-12-20T02:00:57;12.80;99.90
10175;DHT22;18221;38.704;0.152;2023-12-20T02:03:26;12.90;99.90
10175;DHT22;18221;38.704;0.152;2023-12-20T02:05:55;12.90;99.90
10175;DHT22;18221;38.704;0.152;2023-12-20T02:08:23;12.90;99.90
10175;DHT22;18221;38.704;0.152;2023-12-20T02:10:51;12.90;99.90
10175;DHT22;18221;38.704;0.152;2023-12-20T02:13:21;12.90;99.90
10175;DHT22;18221;38.704;0.152;2023-12-20T02:15:49;12.80;99.90
10175;DHT22;18221;38.704;0.152;2023-12-20T02:18:17;12.70;99.90
10175;DHT22;18221;38.704;0.152;2023-12-20T02:20:45;12.70;99.90
10175;DHT22;18221;38.704;0.152;2023-12-20T02:23:14;12.70;99.90
10175;DHT22;18221;38.704;0.152;2023-12-20T02:25:42;12.60;99.90
10175;DHT22;18221;38.704;0.152;2023-12-20T02:28:11;12.60;99.90
10175;DHT22;18221;38.704;0.152;2023-12-20T02:30:39;12.50;99.90
10175;DHT22;18221;38.704;0.152;2023-12-20T02:33:10;12.50;99.90
10175;DHT22;18221;38.704;0.152;2023-12-20T02:35:39;12.50;99.90
10175;DHT22;18221;38.704;0.152;2023-12-20T02:38:07;12.50;99.90
10175;DHT22;18221;38.704;0.152;2023-12-20T02:40:38;12.40;99.90
10175;DHT22;18221;38.704;0.152;2023-12-20T02:43:06;12.50;99.90
10175;DHT22;18221;38.704;0.152;2023-12-20T02:45:34;12.60;99.90
10175;DHT22;18221;38.704;0.152;2023-12-20T02:48:03;12.70;99.90
10175;DHT22;18221;38.704;0.152;2023-12-20T02:50:31;12.80;99.90
10175;DHT22;18221;38.704;0.152;2023-12-20T02:52:59;12.90;99.90
10175;DHT22;18221;38.704;0.152;2023-12-20T02:55:27;12.90;99.90
10175;DHT22;18221;38.704;0.152;2023-12-20T02:57:57;13.00;99.90
10175;DHT22;18221;38.704;0.152;2023-12-20T03:00:25;13.00;99.90
10175;DHT22;18221;38.704;0.152;2023-12-20T03:02:53;13.00;99.90
10175;DHT22;18221;38.704;0.152;2023-12-20T03:05:21;13.00;99.90
10175;DHT22;18221;38.704;0.152;2023-12-20T03:07:49;13.00;99.90
10175;DHT22;18221;38.704;0.152;2023-12-20T03:10:18;13.00;99.90
10175;DHT22;18221;38.704;0.152;2023-12-20T03:12:46;13.10;99.90
10175;DHT22;18221;38.704;0.152;2023-12-20T03:15:16;15.10;99.90
10175;DHT22;18221;38.704;0.152;2023-12-20T03:17:44;13.20;99.90
10175;DHT22;18221;38.704;0.152;2023-12-20T03:20:12;13.20;99.90
10175;DHT22;18221;38.704;0.152;2023-12-20T03:22:51;13.20;99.90
10175;DHT22;18221;38.704;0.152;2023-12-20T03:25:22;13.30;99.90
10175;DHT22;18221;38.704;0.152;2023-12-20T03:27:50;13.30;99.90
10175;DHT22;18221;38.704;0.152;2023-12-20T03:30:19;13.30;99.90
10175;DHT22;18221;38.704;0.152;2023-12-20T03:32:47;13.40;99.90
10175;DHT22;18221;38.704;0.152;2023-12-20T03:35:15;13.40;99.90
10175;DHT22;18221;38.704;0.152;2023-12-20T03:37:43;13.40;99.90
10175;DHT22;18221;38.704;0.152;2023-12-20T03:40:11;13.30;99.90
10175;DHT22;18221;38.704;0.152;2023-12-20T03:42:39;13.30;99.90
10175;DHT22;18221;38.704;0.152;2023-12-20T03:45:08;13.30;99.90
10175;DHT22;18221;38.704;0.152;2023-12-20T03:47:38;13.30;99.90
10175;DHT22;18221;38.704;0.152;2023-12-20T03:50:07;13.30;99.90
10175;DHT22;18221;38.704;0.152;2023-12-20T03:52:35;13.30;99.90
10175;DHT22;18221;38.704;0.152;2023-12-20T03:55:04;13.30;99.90
10175;DHT22;18221;38.704;0.152;2023-12-20T03:57:32;13.30;99.90
10175;DHT22;18221;38.704;0.152;2023-12-20T04:00:00;13.30;99.90
10175;DHT22;18221;38.704;0.152;2023-12-20T04:02:28;13.30;99.90
10175;DHT22;18221;38.704;0.152;2023-12-20T04:04:58;13.30;99.90
10175;DHT22;18221;38.704;0.152;2023-12-20T04:07:26;13.40;99.90
10175;DHT22;18221;38.704;0.152;2023-12-20T04:09:55;13.40;99.90
10175;DHT22;18221;38.704;0.152;2023-12-20T04:12:23;13.40;99.90
10175;DHT22;18221;38.704;0.152;2023-12-20T04:14:52;13.40;99.90
10175;DHT22;18221;38.704;0.152;2023-12-20T04:17:20;13.40;99.90
10175;DHT22;18221;38.704;0.152;2023-12-20T04:19:49;13.40;99.90
10175;DHT22;18221;38.704;0.152;2023-12-20T04:22:19;13.40;99.90
10175;DHT22;18221;38.704;0.152;2023-12-20T04:24:49;13.40;99.90
10175;DHT22;18221;38.704;0.152;2023-12-20T04:27:17;13.40;99.90
10175;DHT22;18221;38.704;0.152;2023-12-20T04:29:43;13.40;99.90
10175;DHT22;18221;38.704;0.152;2023-12-20T04:32:11;13.40;99.90
10175;DHT22;18221;38.704;0.152;2023-12-20T04:34:39;13.30;99.90
10175;DHT22;18221;38.704;0.152;2023-12-20T04:37:07;13.30;99.90
10175;DHT22;18221;38.704;0.152;2023-12-20T04:39:37;13.20;99.90
10175;DHT22;18221;38.704;0.152;2023-12-20T04:42:08;13.20;99.90
10175;DHT22;18221;38.704;0.152;2023-12-20T04:44:36;13.20;99.90
10175;DHT22;18221;38.704;0.152;2023-12-20T04:47:04;13.30;99.90
10175;DHT22;18221;38.704;0.152;2023-12-20T04:49:32;13.30;99.90
10175;DHT22;18221;38.704;0.152;2023-12-20T04:52:00;13.30;99.90
10175;DHT22;18221;38.704;0.152;2023-12-20T04:54:28;13.40;99.90
10175;DHT22;18221;38.704;0.152;2023-12-20T04:56:57;13.40;99.90
10175;DHT22;18221;38.704;0.152;2023-12-20T04:59:25;13.30;99.90
10175;DHT22;18221;38.704;0.152;2023-12-20T05:01:53;13.30;99.90
10175;DHT22;18221;38.704;0.152;2023-12-20T05:04:21;13.20;99.90
10175;DHT22;18221;38.704;0.152;2023-12-20T05:06:50;13.10;99.90
10175;DHT22;18221;38.704;0.152;2023-12-20T05:09:18;13.10;99.90
10175;DHT22;18221;38.704;0.152;2023-12-20T05:11:46;13.10;99.90
10175;DHT22;18221;38.704;0.152;2023-12-20T05:14:15;13.10;99.90
10175;DHT22;18221;38.704;0.152;2023-12-20T05:16:43;13.10;99.90
10175;DHT22;18221;38.704;0.152;2023-12-20T05:19:11;13.20;99.90
10175;DHT22;18221;38.704;0.152;2023-12-20T05:21:40;13.30;99.90
10175;DHT22;18221;38.704;0.152;2023-12-20T05:24:08;13.30;99.90
10175;DHT22;18221;38.704;0.152;2023-12-20T05:26:36;13.30;99.90
10175;DHT22;18221;38.704;0.152;2023-12-20T05:29:04;13.30;99.90
10175;DHT22;18221;38.704;0.152;2023-12-20T05:31:33;13.30;99.90
10175;DHT22;18221;38.704;0.152;2023-12-20T05:34:01;13.30;99.90
10175;DHT22;18221;38.704;0.152;2023-12-20T05:36:29;13.30;99.90
10175;DHT22;18221;38.704;0.152;2023-12-20T05:38:58;13.20;99.90
10175;DHT22;18221;38.704;0.152;2023-12-20T05:41:27;13.20;99.90
10175;DHT22;18221;38.704;0.152;2023-12-20T05:43:55;13.10;99.90
10175;DHT22;18221;38.704;0.152;2023-12-20T05:46:24;13.10;99.90
10175;DHT22;18221;38.704;0.152;2023-12-20T05:48:53;13.00;99.90
10175;DHT22;18221;38.704;0.152;2023-12-20T05:51:21;13.00;99.90
10175;DHT22;18221;38.704;0.152;2023-12-20T05:53:49;13.10;99.90
10175;DHT22;18221;38.704;0.152;2023-12-20T05:56:17;13.10;99.90
10175;DHT22;18221;38.704;0.152;2023-12-20T05:58:45;13.20;99.90
10175;DHT22;18221;38.704;0.152;2023-12-20T06:01:14;13.20;99.90
10175;DHT22;18221;38.704;0.152;2023-12-20T06:03:43;13.20;99.90
10175;DHT22;18221;38.704;0.152;2023-12-20T06:06:13;13.20;99.90
10175;DHT22;18221;38.704;0.152;2023-12-20T06:08:41;13.20;99.90
10175;DHT22;18221;38.704;0.152;2023-12-20T06:11:11;13.20;99.90
10175;DHT22;18221;38.704;0.152;2023-12-20T06:13:39;13.20;99.90
10175;DHT22;18221;38.704;0.152;2023-12-20T06:16:07;13.20;99.90
10175;DHT22;18221;38.704;0.152;2023-12-20T06:18:35;13.20;99.90
10175;DHT22;18221;38.704;0.152;2023-12-20T06:21:04;13.20;99.90
10175;DHT22;18221;38.704;0.152;2023-12-20T06:23:34;13.30;99.90
10175;DHT22;18221;38.704;0.152;2023-12-20T06:26:03;13.20;99.90
10175;DHT22;18221;38.704;0.152;2023-12-20T06:28:30;13.20;99.90
10175;DHT22;18221;38.704;0.152;2023-12-20T06:30:58;13.20;99.90
10175;DHT22;18221;38.704;0.152;2023-12-20T06:33:26;13.20;99.90
10175;DHT22;18221;38.704;0.152;2023-12-20T06:35:55;13.20;99.90
10175;DHT22;18221;38.704;0.152;2023-12-20T06:38:23;13.20;99.90
10175;DHT22;18221;38.704;0.152;2023-12-20T06:40:52;13.20;99.90
10175;DHT22;18221;38.704;0.152;2023-12-20T06:43:23;13.30;99.90
10175;DHT22;18221;38.704;0.152;2023-12-20T06:45:51;13.30;99.90
10175;DHT22;18221;38.704;0.152;2023-12-20T06:48:19;13.30;99.90
10175;DHT22;18221;38.704;0.152;2023-12-20T06:50:47;13.30;99.90
10175;DHT22;18221;38.704;0.152;2023-12-20T06:53:15;13.30;99.90
10175;DHT22;18221;38.704;0.152;2023-12-20T06:55:43;13.30;99.90
10175;DHT22;18221;38.704;0.152;2023-12-20T06:58:12;13.30;99.90
10175;DHT22;18221;38.704;0.152;2023-12-20T07:00:40;13.30;99.90
10175;DHT22;18221;38.704;0.152;2023-12-20T07:03:09;13.40;99.90
10175;DHT22;18221;38.704;0.152;2023-12-20T07:05:37;13.40;99.90
10175;DHT22;18221;38.704;0.152;2023-12-20T07:08:06;13.40;99.90
10175;DHT22;18221;38.704;0.152;2023-12-20T07:10:34;13.40;99.90
10175;DHT22;18221;38.704;0.152;2023-12-20T07:13:02;13.40;99.90
10175;DHT22;18221;38.704;0.152;2023-12-20T07:15:32;13.30;99.90
10175;DHT22;18221;38.704;0.152;2023-12-20T07:18:01;13.30;99.90
10175;DHT22;18221;38.704;0.152;2023-12-20T07:20:29;13.40;99.90
10175;DHT22;18221;38.704;0.152;2023-12-20T07:22:57;13.40;99.90
10175;DHT22;18221;38.704;0.152;2023-12-20T07:25:25;13.40;99.90
10175;DHT22;18221;38.704;0.152;2023-12-20T07:27:54;13.40;99.90
10175;DHT22;18221;38.704;0.152;2023-12-20T07:30:22;13.40;99.90
10175;DHT22;18221;38.704;0.152;2023-12-20T07:32:51;13.40;99.90
10175;DHT22;18221;38.704;0.152;2023-12-20T07:35:19;13.40;99.90
10175;DHT22;18221;38.704;0.152;2023-12-20T07:37:47;13.40;99.90
10175;DHT22;18221;38.704;0.152;2023-12-20T07:40:15;13.40;99.90
10175;DHT22;18221;38.704;0.152;2023-12-20T07:42:43;13.50;99.90
10175;DHT22;18221;38.704;0.152;2023-12-20T07:45:11;13.40;99.90
10175;DHT22;18221;38.704;0.152;2023-12-20T07:47:39;13.40;99.90
10175;DHT22;18221;38.704;0.152;2023-12-20T07:50:09;13.40;99.90
10175;DHT22;18221;38.704;0.152;2023-12-20T07:52:37;13.40;99.90
10175;DHT22;18221;38.704;0.152;2023-12-20T07:55:06;13.50;99.90
10175;DHT22;18221;38.704;0.152;2023-12-20T07:57:34;13.40;99.90
10175;DHT22;18221;38.704;0.152;2023-12-20T08:00:03;13.50;99.90
10175;DHT22;18221;38.704;0.152;2023-12-20T08:02:32;13.50;99.90
10175;DHT22;18221;38.704;0.152;2023-12-20T08:05:00;13.50;99.90
10175;DHT22;18221;38.704;0.152;2023-12-20T08:07:29;13.60;99.90
10175;DHT22;18221;38.704;0.152;2023-12-20T08:09:57;13.60;99.90
10175;DHT22;18221;38.704;0.152;2023-12-20T08:12:26;13.70;99.90
10175;DHT22;18221;38.704;0.152;2023-12-20T08:14:54;13.70;99.90
10175;DHT22;18221;38.704;0.152;2023-12-20T08:17:23;13.80;99.90
10175;DHT22;18221;38.704;0.152;2023-12-20T08:19:51;13.80;99.90
10175;DHT22;18221;38.704;0.152;2023-12-20T08:22:19;13.80;99.90
10175;DHT22;18221;38.704;0.152;2023-12-20T08:24:48;13.80;99.90
10175;DHT22;18221;38.704;0.152;2023-12-20T08:27:16;14.00;99.90
10175;DHT22;18221;38.704;0.152;2023-12-20T08:29:44;14.00;99.90
10175;DHT22;18221;38.704;0.152;2023-12-20T08:32:12;14.00;99.90
10175;DHT22;18221;38.704;0.152;2023-12-20T08:34:40;14.10;99.90
10175;DHT22;18221;38.704;0.152;2023-12-20T08:37:08;14.10;99.90
10175;DHT22;18221;38.704;0.152;2023-12-20T08:39:37;14.10;99.90
10175;DHT22;18221;38.704;0.152;2023-12-20T08:42:07;14.20;99.90
10175;DHT22;18221;38.704;0.152;2023-12-20T08:44:35;14.20;99.90
10175;DHT22;18221;38.704;0.152;2023-12-20T08:47:05;14.30;99.90
10175;DHT22;18221;38.704;0.152;2023-12-20T08:49:33;14.30;99.90
10175;DHT22;18221;38.704;0.152;2023-12-20T08:52:02;14.40;99.90
10175;DHT22;18221;38.704;0.152;2023-12-20T08:54:30;14.40;99.90
10175;DHT22;18221;38.704;0.152;2023-12-20T08:56:58;14.40;99.90
10175;DHT22;18221;38.704;0.152;2023-12-20T08:59:27;14.40;99.90
10175;DHT22;18221;38.704;0.152;2023-12-20T09:01:55;14.50;99.90
10175;DHT22;18221;38.704;0.152;2023-12-20T09:04:23;14.50;99.90
10175;DHT22;18221;38.704;0.152;2023-12-20T09:06:52;14.50;99.90
10175;DHT22;18221;38.704;0.152;2023-12-20T09:09:19;14.50;99.90
10175;DHT22;18221;38.704;0.152;2023-12-20T09:11:47;14.50;99.90
10175;DHT22;18221;38.704;0.152;2023-12-20T09:14:17;14.50;99.90
10175;DHT22;18221;38.704;0.152;2023-12-20T09:16:46;14.50;99.90
10175;DHT22;18221;38.704;0.152;2023-12-20T09:19:17;14.50;99.90
10175;DHT22;18221;38.704;0.152;2023-12-20T09:21:45;14.50;99.90
10175;DHT22;18221;38.704;0.152;2023-12-20T09:24:13;14.50;99.90
10175;DHT22;18221;38.704;0.152;2023-12-20T09:26:41;14.50;99.90
10175;DHT22;18221;38.704;0.152;2023-12-20T09:29:10;14.60;99.90
10175;DHT22;18221;38.704;0.152;2023-12-20T09:31:41;14.60;99.90
10175;DHT22;18221;38.704;0.152;2023-12-20T09:34:11;14.70;99.90
10175;DHT22;18221;38.704;0.152;2023-12-20T09:36:39;14.70;99.90
10175;DHT22;18221;38.704;0.152;2023-12-20T09:39:12;14.70;99.90
10175;DHT22;18221;38.704;0.152;2023-12-20T09:41:43;14.80;99.90
10175;DHT22;18221;38.704;0.152;2023-12-20T09:44:15;14.80;99.90
10175;DHT22;18221;38.704;0.152;2023-12-20T09:46:49;14.80;99.90
10175;DHT22;18221;38.704;0.152;2023-12-20T09:49:19;14.80;99.90
10175;DHT22;18221;38.704;0.152;2023-12-20T09:51:48;14.90;99.90
10175;DHT22;18221;38.704;0.152;2023-12-20T09:54:18;14.90;99.90
10175;DHT22;18221;38.704;0.152;2023-12-20T09:56:48;14.90;99.90
10175;DHT22;18221;38.704;0.152;2023-12-20T09:59:16;14.90;99.90
10175;DHT22;18221;38.704;0.152;2023-12-20T10:01:44;14.90;99.90
10175;DHT22;18221;38.704;0.152;2023-12-20T10:04:13;14.90;99.90
10175;DHT22;18221;38.704;0.152;2023-12-20T10:06:44;14.90;99.90
10175;DHT22;18221;38.704;0.152;2023-12-20T10:09:13;14.90;99.90
10175;DHT22;18221;38.704;0.152;2023-12-20T10:11:41;15.00;99.90
10175;DHT22;18221;38.704;0.152;2023-12-20T10:14:11;14.90;99.90
10175;DHT22;18221;38.704;0.152;2023-12-20T10:16:39;15.00;99.90
10175;DHT22;18221;38.704;0.152;2023-12-20T10:19:08;15.00;99.90
10175;DHT22;18221;38.704;0.152;2023-12-20T10:21:36;15.00;99.90
10175;DHT22;18221;38.704;0.152;2023-12-20T10:24:06;15.00;99.90
10175;DHT22;18221;38.704;0.152;2023-12-20T10:26:34;15.00;99.90
10175;DHT22;18221;38.704;0.152;2023-12-20T10:29:05;15.00;99.90
10175;DHT22;18221;38.704;0.152;2023-12-20T10:31:34;15.00;99.90
10175;DHT22;18221;38.704;0.152;2023-12-20T10:34:04;15.00;99.90
10175;DHT22;18221;38.704;0.152;2023-12-20T10:36:33;15.10;99.90
10175;DHT22;18221;38.704;0.152;2023-12-20T10:39:02;15.10;99.90
10175;DHT22;18221;38.704;0.152;2023-12-20T10:41:34;15.20;99.90
10175;DHT22;18221;38.704;0.152;2023-12-20T10:44:07;15.20;99.90
10175;DHT22;18221;38.704;0.152;2023-12-20T10:46:40;15.20;99.90
10175;DHT22;18221;38.704;0.152;2023-12-20T10:49:15;15.20;99.90
10175;DHT22;18221;38.704;0.152;2023-12-20T10:51:46;15.30;99.90
10175;DHT22;18221;38.704;0.152;2023-12-20T10:54:17;15.30;99.90
10175;DHT22;18221;38.704;0.152;2023-12-20T10:56:45;15.30;99.90
10175;DHT22;18221;38.704;0.152;2023-12-20T10:59:18;15.30;99.90
10175;DHT22;18221;38.704;0.152;2023-12-20T11:01:48;15.30;99.90
10175;DHT22;18221;38.704;0.152;2023-12-20T11:04:22;15.30;99.90
10175;DHT22;18221;38.704;0.152;2023-12-20T11:06:59;15.40;99.90
10175;DHT22;18221;38.704;0.152;2023-12-20T11:09:40;15.40;99.90
10175;DHT22;18221;38.704;0.152;2023-12-20T11:12:22;15.40;99.90
10175;DHT22;18221;38.704;0.152;2023-12-20T11:14:57;15.40;99.90
10175;DHT22;18221;38.704;0.152;2023-12-20T11:17:31;15.60;99.90
10175;DHT22;18221;38.704;0.152;2023-12-20T11:20:07;15.60;99.90
10175;DHT22;18221;38.704;0.152;2023-12-20T11:22:40;15.60;99.90
10175;DHT22;18221;38.704;0.152;2023-12-20T11:25:21;15.70;99.90
10175;DHT22;18221;38.704;0.152;2023-12-20T11:28:10;15.70;99.90
10175;DHT22;18221;38.704;0.152;2023-12-20T11:30:45;15.80;99.90
10175;DHT22;18221;38.704;0.152;2023-12-20T11:33:15;15.80;99.90
10175;DHT22;18221;38.704;0.152;2023-12-20T11:35:46;15.80;99.90
10175;DHT22;18221;38.704;0.152;2023-12-20T11:38:15;15.70;99.90
10175;DHT22;18221;38.704;0.152;2023-12-20T11:40:49;15.60;99.90
10175;DHT22;18221;38.704;0.152;2023-12-20T11:43:30;15.50;99.90
10175;DHT22;18221;38.704;0.152;2023-12-20T11:46:06;15.40;99.90
10175;DHT22;18221;38.704;0.152;2023-12-20T11:48:37;15.40;99.90
10175;DHT22;18221;38.704;0.152;2023-12-20T11:51:09;15.50;99.90
10175;DHT22;18221;38.704;0.152;2023-12-20T11:53:38;15.60;99.90
10175;DHT22;18221;38.704;0.152;2023-12-20T11:56:08;15.60;99.90
10175;DHT22;18221;38.704;0.152;2023-12-20T11:58:37;15.70;99.90
10175;DHT22;18221;38.704;0.152;2023-12-20T12:01:05;15.80;99.90
10175;DHT22;18221;38.704;0.152;2023-12-20T12:03:33;15.90;99.90
10175;DHT22;18221;38.704;0.152;2023-12-20T12:06:02;15.90;99.90
10175;DHT22;18221;38.704;0.152;2023-12-20T12:08:31;15.90;99.90
10175;DHT22;18221;38.704;0.152;2023-12-20T12:10:59;15.90;99.90
10175;DHT22;18221;38.704;0.152;2023-12-20T12:13:29;15.90;99.90
10175;DHT22;18221;38.704;0.152;2023-12-20T12:15:57;15.90;99.90
10175;DHT22;18221;38.704;0.152;2023-12-20T12:18:26;15.90;99.90
10175;DHT22;18221;38.704;0.152;2023-12-20T12:21:00;15.80;99.90
10175;DHT22;18221;38.704;0.152;2023-12-20T12:23:29;15.80;99.90
10175;DHT22;18221;38.704;0.152;2023-12-20T12:25:56;15.80;99.90
10175;DHT22;18221;38.704;0.152;2023-12-20T12:28:28;15.80;99.90
10175;DHT22;18221;38.704;0.152;2023-12-20T12:30:58;15.90;99.90
10175;DHT22;18221;38.704;0.152;2023-12-20T12:33:26;15.90;99.90
10175;DHT22;18221;38.704;0.152;2023-12-20T12:35:55;15.90;99.90
10175;DHT22;18221;38.704;0.152;2023-12-20T12:38:24;15.80;99.90
10175;DHT22;18221;38.704;0.152;2023-12-20T12:40:52;15.80;99.90
10175;DHT22;18221;38.704;0.152;2023-12-20T12:43:21;15.80;99.90
10175;DHT22;18221;38.704;0.152;2023-12-20T12:45:51;15.90;99.90
10175;DHT22;18221;38.704;0.152;2023-12-20T12:48:20;16.00;99.90
10175;DHT22;18221;38.704;0.152;2023-12-20T12:50:49;16.20;99.90
10175;DHT22;18221;38.704;0.152;2023-12-20T12:53:19;16.40;99.90
10175;DHT22;18221;38.704;0.152;2023-12-20T12:55:47;16.50;99.90
10175;DHT22;18221;38.704;0.152;2023-12-20T12:58:15;16.70;99.90
10175;DHT22;18221;38.704;0.152;2023-12-20T13:00:43;16.90;99.90
10175;DHT22;18221;38.704;0.152;2023-12-20T13:03:12;17.00;99.90
10175;DHT22;18221;38.704;0.152;2023-12-20T13:05:40;17.00;99.90
10175;DHT22;18221;38.704;0.152;2023-12-20T13:08:09;17.00;99.90
10175;DHT22;18221;38.704;0.152;2023-12-20T13:10:38;17.10;99.90
10175;DHT22;18221;38.704;0.152;2023-12-20T13:13:06;17.20;99.90
10175;DHT22;18221;38.704;0.152;2023-12-20T13:15:35;17.30;99.90
10175;DHT22;18221;38.704;0.152;2023-12-20T13:18:04;17.30;99.90
10175;DHT22;18221;38.704;0.152;2023-12-20T13:20:34;17.30;99.90
10175;DHT22;18221;38.704;0.152;2023-12-20T13:23:02;17.20;99.90
10175;DHT22;18221;38.704;0.152;2023-12-20T13:25:30;17.10;99.90
10175;DHT22;18221;38.704;0.152;2023-12-20T13:27:59;17.00;99.90
10175;DHT22;18221;38.704;0.152;2023-12-20T13:30:29;16.90;99.90
10175;DHT22;18221;38.704;0.152;2023-12-20T13:32:58;16.80;99.90
10175;DHT22;18221;38.704;0.152;2023-12-20T13:35:26;16.80;99.90
10175;DHT22;18221;38.704;0.152;2023-12-20T13:37:57;16.70;99.90
10175;DHT22;18221;38.704;0.152;2023-12-20T13:40:25;15.10;99.90
10175;DHT22;18221;38.704;0.152;2023-12-20T13:42:54;16.70;99.90
10175;DHT22;18221;38.704;0.152;2023-12-20T13:45:22;16.70;99.90
10175;DHT22;18221;38.704;0.152;2023-12-20T13:47:51;16.60;99.90
10175;DHT22;18221;38.704;0.152;2023-12-20T13:50:19;16.60;99.90
10175;DHT22;18221;38.704;0.152;2023-12-20T13:52:47;16.60;99.90
10175;DHT22;18221;38.704;0.152;2023-12-20T13:55:17;16.60;99.90
10175;DHT22;18221;38.704;0.152;2023-12-20T13:57:48;16.60;99.90
10175;DHT22;18221;38.704;0.152;2023-12-20T14:00:16;16.60;99.90
10175;DHT22;18221;38.704;0.152;2023-12-20T14:02:45;16.60;99.90
10175;DHT22;18221;38.704;0.152;2023-12-20T14:05:14;16.60;99.90
10175;DHT22;18221;38.704;0.152;2023-12-20T14:07:43;16.60;99.90
10175;DHT22;18221;38.704;0.152;2023-12-20T14:10:12;16.50;99.90
10175;DHT22;18221;38.704;0.152;2023-12-20T14:12:42;16.40;99.90
10175;DHT22;18221;38.704;0.152;2023-12-20T14:15:11;16.30;99.90
10175;DHT22;18221;38.704;0.152;2023-12-20T14:17:40;16.30;99.90
10175;DHT22;18221;38.704;0.152;2023-12-20T14:20:09;16.30;99.90
10175;DHT22;18221;38.704;0.152;2023-12-20T14:22:39;16.30;99.90
10175;DHT22;18221;38.704;0.152;2023-12-20T14:25:11;16.30;99.90
10175;DHT22;18221;38.704;0.152;2023-12-20T14:27:43;16.30;99.90
10175;DHT22;18221;38.704;0.152;2023-12-20T14:30:13;16.20;99.90
10175;DHT22;18221;38.704;0.152;2023-12-20T14:32:43;16.20;99.90
10175;DHT22;18221;38.704;0.152;2023-12-20T14:35:12;16.30;99.90
10175;DHT22;18221;38.704;0.152;2023-12-20T14:37:40;16.20;99.90
10175;DHT22;18221;38.704;0.152;2023-12-20T14:40:09;16.20;99.90
10175;DHT22;18221;38.704;0.152;2023-12-20T14:42:41;16.20;99.90
10175;DHT22;18221;38.704;0.152;2023-12-20T14:45:10;16.20;99.90
10175;DHT22;18221;38.704;0.152;2023-12-20T14:47:40;16.20;99.90
10175;DHT22;18221;38.704;0.152;2023-12-20T14:50:08;16.20;99.90
10175;DHT22;18221;38.704;0.152;2023-12-20T14:52:38;16.20;99.90
10175;DHT22;18221;38.704;0.152;2023-12-20T14:55:06;16.20;99.90
10175;DHT22;18221;38.704;0.152;2023-12-20T14:57:34;16.20;99.90
10175;DHT22;18221;38.704;0.152;2023-12-20T15:00:05;16.20;99.90
10175;DHT22;18221;38.704;0.152;2023-12-20T15:02:34;16.20;99.90
10175;DHT22;18221;38.704;0.152;2023-12-20T15:05:02;16.10;99.90
10175;DHT22;18221;38.704;0.152;2023-12-20T15:07:30;16.10;99.90
10175;DHT22;18221;38.704;0.152;2023-12-20T15:09:58;16.10;99.90
10175;DHT22;18221;38.704;0.152;2023-12-20T15:12:26;16.00;99.90
10175;DHT22;18221;38.704;0.152;2023-12-20T15:14:54;16.00;99.90
10175;DHT22;18221;38.704;0.152;2023-12-20T15:17:24;16.00;99.90
10175;DHT22;18221;38.704;0.152;2023-12-20T15:19:52;15.90;99.90
10175;DHT22;18221;38.704;0.152;2023-12-20T15:22:21;15.90;99.90
10175;DHT22;18221;38.704;0.152;2023-12-20T15:24:52;15.90;99.90
10175;DHT22;18221;38.704;0.152;2023-12-20T15:27:20;15.90;99.90
10175;DHT22;18221;38.704;0.152;2023-12-20T15:29:48;15.80;99.90
10175;DHT22;18221;38.704;0.152;2023-12-20T15:32:17;15.90;99.90
10175;DHT22;18221;38.704;0.152;2023-12-20T15:34:47;15.80;99.90
10175;DHT22;18221;38.704;0.152;2023-12-20T15:37:16;15.80;99.90
10175;DHT22;18221;38.704;0.152;2023-12-20T15:39:44;15.70;99.90
10175;DHT22;18221;38.704;0.152;2023-12-20T15:42:12;15.70;99.90
10175;DHT22;18221;38.704;0.152;2023-12-20T15:44:40;15.70;99.90
10175;DHT22;18221;38.704;0.152;2023-12-20T15:47:09;15.70;99.90
10175;DHT22;18221;38.704;0.152;2023-12-20T15:49:37;15.60;99.90
10175;DHT22;18221;38.704;0.152;2023-12-20T15:52:07;15.60;99.90
10175;DHT22;18221;38.704;0.152;2023-12-20T15:54:35;15.60;99.90